Time;durP1;ratioP1;P1;durP2;ratioP2;P2;SDS_P1;SDS_P2;PMS_P1;PMS_P2;Temp;Humidity;BMP_temperature;BMP_pressure;BME280_temperature;BME280_humidity;BME280_pressure;Samples;Min_cycle;Max_cycle;Signal;HPM_P1;HPM_P2
2022/11/08 00:01:31;;;;;;;5.23;3.10;;;;;;;18.59;57.09;100748.44;5044993;28;20044;-40
2022/11/08 00:04:03;;;;;;;4.80;2.97;;;;;;;18.59;57.07;100748.44;5048492;28;20094;-39
2022/11/08 00:14:42;;;;;;;7.53;3.17;;;;;;;18.58;57.13;100752.84;5049833;28;20071;-41
2022/11/08 00:17:09;;;;;;;6.80;2.53;;;;;;;18.59;57.17;100751.06;5044212;28;20638;-41
2022/11/08 00:19:34;;;;;;;5.22;2.72;;;;;;;18.58;56.83;100749.34;5046314;28;20114;-40
2022/11/08 00:21:59;;;;;;;4.68;2.38;;;;;;;18.57;56.95;100743.22;5052069;28;20041;-39
2022/11/08 00:24:25;;;;;;;4.15;2.10;;;;;;;18.58;56.95;100741.47;5049202;28;20037;-40
2022/11/08 00:26:50;;;;;;;3.88;2.45;;;;;;;18.57;57.19;100735.34;5035097;28;20091;-40
2022/11/08 00:29:16;;;;;;;4.28;2.30;;;;;;;18.58;57.04;100738.81;5047617;28;20784;-40
2022/11/08 00:31:42;;;;;;;7.93;3.22;;;;;;;18.57;57.03;100729.25;5051063;28;20046;-40
2022/11/08 00:34:08;;;;;;;5.78;2.45;;;;;;;18.57;57.06;100735.34;5055475;28;20040;-41
2022/11/08 00:36:33;;;;;;;7.30;2.58;;;;;;;18.57;56.97;100731.88;5048331;28;20048;-41
2022/11/08 00:38:58;;;;;;;4.55;2.35;;;;;;;18.56;56.92;100733.66;5048491;28;20154;-40
2022/11/08 00:41:24;;;;;;;5.22;2.80;;;;;;;18.57;57.08;100737.16;5043974;28;20135;-40
2022/11/08 00:43:49;;;;;;;5.53;2.35;;;;;;;18.56;56.95;100732.81;5043689;28;20048;-40
2022/11/08 00:46:15;;;;;;;4.15;2.53;;;;;;;18.56;57.07;100736.28;5042835;28;20033;-40
2022/11/08 00:48:40;;;;;;;6.22;2.85;;;;;;;18.57;57.07;100737.97;5050746;28;20296;-40
2022/11/08 00:51:08;;;;;;;4.75;2.75;;;;;;;18.57;56.91;100724.81;5043042;28;20039;-40
2022/11/08 00:53:36;;;;;;;5.80;2.65;;;;;;;18.56;57.00;100722.28;5050903;28;20024;-40
2022/11/08 00:56:04;;;;;;;4.28;2.28;;;;;;;18.56;56.88;100717.03;5047149;28;20413;-40
2022/11/08 00:58:30;;;;;;;4.18;2.20;;;;;;;18.56;57.04;100717.88;5045062;28;20159;-40
2022/11/08 01:00:56;;;;;;;7.75;2.65;;;;;;;18.57;57.06;100731.88;5047688;28;20832;-40
2022/11/08 01:03:22;;;;;;;5.45;2.13;;;;;;;18.56;57.01;100725.78;5050066;28;20053;-40
2022/11/08 01:05:50;;;;;;;5.00;2.30;;;;;;;18.56;57.04;100717.03;5053068;28;20029;-40
2022/11/08 01:08:17;;;;;;;3.50;2.38;;;;;;;18.54;56.93;100705.75;5048722;28;20784;-41
2022/11/08 01:10:45;;;;;;;4.18;2.35;;;;;;;18.56;56.87;100719.66;5046926;28;20543;-40
2022/11/08 01:13:12;;;;;;;5.28;2.80;;;;;;;18.56;57.04;100709.13;5047846;28;20502;-40
2022/11/08 01:15:41;;;;;;;5.75;2.33;;;;;;;18.55;56.94;100715.31;5042159;28;20045;-40
2022/11/08 01:18:08;;;;;;;4.40;2.50;;;;;;;18.54;57.01;100711.00;5045965;28;20032;-40
2022/11/08 01:20:41;;;;;;;5.82;2.80;;;;;;;18.54;56.88;100703.94;5041848;28;20033;-41
2022/11/08 01:23:07;;;;;;;4.45;1.90;;;;;;;18.53;56.82;100701.41;5058288;28;20041;-40
2022/11/08 01:25:41;;;;;;;6.90;2.53;;;;;;;18.52;56.84;100708.44;5049537;28;20516;-40
2022/11/08 01:28:06;;;;;;;3.83;2.40;;;;;;;18.52;57.02;100707.59;5051870;28;20044;-40
2022/11/08 01:30:36;;;;;;;3.35;1.90;;;;;;;18.54;56.97;100713.63;5052572;28;20421;-40
2022/11/08 01:33:01;;;;;;;4.97;2.15;;;;;;;18.53;56.87;100704.91;5044582;28;20640;-44
2022/11/08 01:35:28;;;;;;;6.78;2.70;;;;;;;18.52;56.92;100692.66;5052430;28;20041;-40
2022/11/08 01:37:54;;;;;;;3.35;2.20;;;;;;;18.54;56.99;100700.50;5044266;28;20488;-40
2022/11/08 01:40:19;;;;;;;5.40;2.55;;;;;;;18.54;56.93;100703.13;5045549;28;20082;-40
2022/11/08 01:42:44;;;;;;;3.53;2.03;;;;;;;18.53;56.77;100696.16;5044739;28;20041;-40
2022/11/08 01:45:10;;;;;;;6.82;2.58;;;;;;;18.52;57.04;100695.28;5047547;28;20504;-40
2022/11/08 01:47:36;;;;;;;5.72;2.40;;;;;;;18.50;57.04;100685.78;5045991;28;20752;-40
2022/11/08 01:50:15;;;;;;;3.97;2.25;;;;;;;18.52;56.95;100683.91;5047111;28;20039;-40
2022/11/08 01:52:47;;;;;;;7.00;2.70;;;;;;;18.52;56.83;100684.78;5046305;28;20037;-40
2022/11/08 01:55:21;;;;;;;2.90;1.90;;;;;;;18.51;56.99;100684.88;5044742;28;20041;-40
2022/11/08 01:58:01;;;;;;;5.38;2.45;;;;;;;18.51;56.92;100687.50;5047347;28;20183;-40
2022/11/08 02:00:26;;;;;;;4.63;2.05;;;;;;;18.51;57.13;100690.13;5049853;28;20040;-40
2022/11/08 02:02:58;;;;;;;4.00;2.20;;;;;;;18.50;56.82;100684.00;5053274;28;20078;-40
2022/11/08 02:05:23;;;;;;;3.97;2.10;;;;;;;18.50;56.86;100691.06;5047884;28;20047;-40
2022/11/08 02:07:56;;;;;;;4.85;2.15;;;;;;;18.51;57.01;100680.44;5050108;28;20040;-42
2022/11/08 02:10:25;;;;;;;4.38;2.35;;;;;;;18.51;56.98;100677.81;5049170;28;20040;-40
2022/11/08 02:12:53;;;;;;;4.63;2.28;;;;;;;18.51;56.84;100674.34;5042968;28;20044;-40
2022/11/08 02:15:20;;;;;;;4.20;1.88;;;;;;;18.50;56.81;100673.50;5050994;28;20032;-42
2022/11/08 02:17:46;;;;;;;5.80;2.28;;;;;;;18.50;56.96;100670.88;5047000;28;20170;-40
2022/11/08 02:20:11;;;;;;;5.38;2.45;;;;;;;18.50;57.02;100673.50;5048890;28;20864;-41
2022/11/08 02:22:49;;;;;;;5.35;2.20;;;;;;;18.50;56.93;100683.16;5044175;28;20111;-40
2022/11/08 02:25:15;;;;;;;4.78;2.10;;;;;;;18.50;56.86;100675.28;5048023;28;20047;-40
2022/11/08 02:27:40;;;;;;;3.80;2.22;;;;;;;18.49;56.75;100663.91;5051619;28;20042;-40
2022/11/08 02:30:06;;;;;;;3.63;1.92;;;;;;;18.49;56.78;100666.53;5050571;28;20036;-41
2022/11/08 02:32:39;;;;;;;5.32;2.60;;;;;;;18.50;56.91;100662.13;5046456;28;20521;-41
2022/11/08 02:35:07;;;;;;;5.38;2.22;;;;;;;18.49;56.80;100656.00;5048335;28;20067;-40
2022/11/08 02:37:33;;;;;;;3.28;2.10;;;;;;;18.49;57.24;100655.16;5049839;28;20063;-41
2022/11/08 02:39:58;;;;;;;5.60;2.35;;;;;;;18.47;56.76;100652.63;5044107;28;20151;-40
2022/11/08 02:42:23;;;;;;;3.70;2.47;;;;;;;18.48;56.89;100651.66;5048503;28;20500;-40
2022/11/08 02:44:49;;;;;;;4.32;2.08;;;;;;;18.48;56.84;100649.03;5045520;28;20522;-41
2022/11/08 02:47:15;;;;;;;6.18;2.20;;;;;;;18.48;56.78;100643.78;5044089;28;20060;-41
2022/11/08 02:49:40;;;;;;;3.78;1.70;;;;;;;18.47;56.80;100643.88;5051504;28;20040;-42
2022/11/08 02:52:06;;;;;;;5.05;1.98;;;;;;;18.47;56.81;100635.97;5048687;28;20045;-49
2022/11/08 02:54:31;;;;;;;2.83;1.73;;;;;;;18.48;56.86;100632.44;5042873;28;20044;-48
2022/11/08 02:56:56;;;;;;;1.85;1.38;;;;;;;18.47;56.74;100628.94;5045144;28;20036;-48
2022/11/08 02:59:22;;;;;;;3.17;1.80;;;;;;;18.46;56.88;100623.75;5045320;28;20939;-48
2022/11/08 03:01:47;;;;;;;3.50;1.85;;;;;;;18.46;56.71;100616.72;5048404;28;20883;-47
2022/11/08 03:04:13;;;;;;;4.47;2.30;;;;;;;18.46;56.83;100616.72;5050331;28;20534;-46
2022/11/08 03:06:38;;;;;;;4.68;2.15;;;;;;;18.47;56.77;100607.06;5050111;28;20461;-47
2022/11/08 03:09:03;;;;;;;5.78;2.35;;;;;;;18.47;56.87;100600.00;5053026;28;20044;-47
2022/11/08 03:11:29;;;;;;;2.72;1.80;;;;;;;18.46;56.95;100606.19;5052306;28;20025;-47
2022/11/08 03:13:54;;;;;;;4.93;2.20;;;;;;;18.46;56.64;100597.44;5053315;28;20095;-46
2022/11/08 03:16:20;;;;;;;3.60;1.77;;;;;;;18.45;56.96;100593.13;5058398;28;20044;-46
2022/11/08 03:18:45;;;;;;;4.97;1.88;;;;;;;18.45;56.86;100596.59;5059856;28;20054;-47
2022/11/08 03:21:10;;;;;;;5.15;2.28;;;;;;;18.46;56.88;100593.03;5063608;28;20447;-48
2022/11/08 03:23:36;;;;;;;3.22;1.92;;;;;;;18.47;56.76;100586.00;5054123;28;20031;-50
2022/11/08 03:26:02;;;;;;;3.33;1.65;;;;;;;18.46;56.80;100579.03;5048492;28;20032;-50
2022/11/08 03:28:28;;;;;;;4.63;2.05;;;;;;;18.46;56.84;100568.53;5057950;28;20504;-47
2022/11/08 03:30:53;;;;;;;4.20;2.13;;;;;;;18.45;56.81;100569.44;5051064;28;20037;-48
2022/11/08 03:33:20;;;;;;;4.88;1.85;;;;;;;18.46;56.66;100560.63;5056083;28;20036;-47
2022/11/08 03:35:47;;;;;;;3.25;2.08;;;;;;;18.45;56.87;100554.50;5051855;28;20040;-48
2022/11/08 03:38:13;;;;;;;3.45;1.80;;;;;;;18.45;56.85;100562.41;5052942;28;20040;-47
2022/11/08 03:40:38;;;;;;;4.07;1.95;;;;;;;18.44;56.71;100551.94;5052021;28;20040;-48
2022/11/08 03:43:03;;;;;;;5.18;2.00;;;;;;;18.44;56.83;100547.53;5049330;28;20040;-48
2022/11/08 03:45:29;;;;;;;2.90;1.55;;;;;;;18.44;56.73;100544.91;5047547;28;20136;-47
2022/11/08 03:47:54;;;;;;;3.00;1.65;;;;;;;18.44;56.89;100544.06;5055213;28;20063;-48
2022/11/08 03:50:19;;;;;;;3.75;2.00;;;;;;;18.45;56.92;100551.03;5054295;28;20067;-48
2022/11/08 03:52:50;;;;;;;3.90;1.95;;;;;;;18.44;56.89;100537.03;5055250;28;20033;-47
2022/11/08 03:55:17;;;;;;;3.63;2.15;;;;;;;18.43;56.89;100530.06;5055415;28;20581;-47
2022/11/08 03:57:45;;;;;;;3.40;1.55;;;;;;;18.44;56.80;100541.44;5052865;28;20587;-47
2022/11/08 04:00:11;;;;;;;4.40;1.60;;;;;;;18.44;56.75;100541.44;5058929;28;20039;-47
2022/11/08 04:02:37;;;;;;;2.40;1.50;;;;;;;18.42;56.81;100532.78;5052084;28;20033;-49
2022/11/08 04:05:03;;;;;;;3.13;1.80;;;;;;;18.42;56.78;100536.25;5050475;28;20827;-47
2022/11/08 04:07:29;;;;;;;2.88;2.05;;;;;;;18.41;56.82;100531.09;5047050;28;20048;-47
2022/11/08 04:09:54;;;;;;;3.65;2.03;;;;;;;18.42;56.88;100525.72;5050422;28;20060;-47
2022/11/08 04:15:14;;;;;;;5.10;1.83;;;;;;;18.41;56.81;100525.81;5052852;28;20062;-48
2022/11/08 04:23:13;;;;;;;2.83;1.80;;;;;;;18.40;56.93;100524.97;5051255;28;20390;-47
2022/11/08 04:25:39;;;;;;;2.72;1.70;;;;;;;18.41;56.89;100524.03;5046598;28;20043;-46
2022/11/08 04:28:04;;;;;;;5.00;1.77;;;;;;;18.39;56.86;100527.72;5049608;28;20036;-47
2022/11/08 04:30:30;;;;;;;3.75;1.80;;;;;;;18.39;56.85;100530.34;5053890;28;20659;-48
2022/11/08 04:32:55;;;;;;;3.17;1.52;;;;;;;18.40;56.82;100532.00;5050887;28;20044;-47
2022/11/08 04:35:21;;;;;;;2.85;1.88;;;;;;;18.39;56.61;100528.53;5052239;28;20253;-48
2022/11/08 04:37:46;;;;;;;3.78;1.98;;;;;;;18.40;57.03;100522.34;5045576;28;20052;-48
2022/11/08 04:40:12;;;;;;;4.65;1.88;;;;;;;18.39;56.83;100507.50;5043778;28;20281;-47
2022/11/08 04:42:37;;;;;;;3.15;1.67;;;;;;;18.39;56.63;100502.22;5053413;28;21003;-46
2022/11/08 04:45:03;;;;;;;3.60;2.20;;;;;;;18.39;56.72;100501.41;5045109;28;20523;-44
2022/11/08 04:47:28;;;;;;;4.00;1.60;;;;;;;18.38;56.76;100503.19;5042186;28;20025;-48
2022/11/08 04:49:54;;;;;;;3.45;1.65;;;;;;;18.38;56.62;100492.66;5049538;28;20045;-46
2022/11/08 04:52:20;;;;;;;3.85;1.67;;;;;;;18.39;56.85;100502.22;5046483;28;20086;-47
2022/11/08 04:54:48;;;;;;;2.63;1.60;;;;;;;18.39;56.71;100499.59;5049175;28;20820;-47
2022/11/08 04:57:15;;;;;;;4.53;1.85;;;;;;;18.37;56.85;100488.31;5052870;28;20051;-49
2022/11/08 04:59:40;;;;;;;5.20;2.15;;;;;;;18.37;56.75;100476.97;5048582;28;20024;-48
2022/11/08 05:02:05;;;;;;;3.40;1.90;;;;;;;18.37;56.85;100474.31;5045960;28;20437;-47
2022/11/08 05:04:31;;;;;;;3.20;1.48;;;;;;;18.38;56.62;100473.41;5053157;28;20037;-48
2022/11/08 05:06:56;;;;;;;6.50;1.75;;;;;;;18.37;56.73;100469.06;5055618;28;20143;-47
2022/11/08 05:09:24;;;;;;;3.70;2.10;;;;;;;18.37;56.92;100475.19;5057502;28;20494;-47
2022/11/08 05:11:50;;;;;;;3.45;1.92;;;;;;;18.38;56.78;100479.50;5050927;28;20107;-48
2022/11/08 05:14:15;;;;;;;3.38;1.83;;;;;;;18.39;56.62;100469.84;5045964;28;20061;-47
2022/11/08 05:16:40;;;;;;;4.60;1.90;;;;;;;18.37;56.59;100454.13;5044556;28;20024;-47
2022/11/08 05:19:06;;;;;;;4.40;2.08;;;;;;;18.36;56.68;100449.81;5047800;28;20535;-46
2022/11/08 05:24:16;;;;;;;4.40;1.70;;;;;;;18.37;56.63;100448.03;5044824;28;20044;-47
2022/11/08 05:26:44;;;;;;;8.80;1.63;;;;;;;18.37;56.49;100451.50;5050528;28;20449;-47
2022/11/08 05:29:10;;;;;;;5.07;1.95;;;;;;;18.36;56.70;100439.28;5051484;28;20169;-48
2022/11/08 05:31:36;;;;;;;3.60;1.70;;;;;;;18.36;56.63;100434.03;5050677;28;20033;-46
2022/11/08 05:34:01;;;;;;;4.00;1.80;;;;;;;18.36;56.58;100433.22;5050955;28;20041;-46
2022/11/08 05:36:30;;;;;;;2.78;1.92;;;;;;;18.36;56.78;100428.75;5051346;28;20410;-47
2022/11/08 05:38:55;;;;;;;3.85;1.70;;;;;;;18.37;56.59;100434.88;5049072;28;20033;-49
2022/11/08 05:41:23;;;;;;;6.07;2.20;;;;;;;18.38;56.74;100439.22;5045724;28;20039;-48
2022/11/08 05:43:51;;;;;;;4.00;1.65;;;;;;;18.37;56.71;100433.09;5048200;28;20046;-47
2022/11/08 05:46:18;;;;;;;5.03;1.52;;;;;;;18.38;56.60;100439.22;5046726;28;20739;-46
2022/11/08 05:48:48;;;;;;;3.30;1.98;;;;;;;18.37;56.58;100434.88;5049318;28;20060;-46
2022/11/08 05:51:15;;;;;;;4.30;1.77;;;;;;;18.39;56.61;100431.22;5050354;28;20082;-47
2022/11/08 05:53:41;;;;;;;2.72;1.70;;;;;;;18.39;56.62;100431.22;5043477;28;20456;-47
2022/11/08 05:56:07;;;;;;;2.20;1.55;;;;;;;18.39;56.65;100419.88;5046996;28;20044;-47
2022/11/08 05:58:34;;;;;;;5.10;1.77;;;;;;;18.38;56.37;100403.25;5043842;28;20040;-47
2022/11/08 06:01:05;;;;;;;4.30;1.88;;;;;;;18.49;56.37;100402.63;5049315;28;20036;-45
2022/11/08 06:03:33;;;;;;;3.40;1.58;;;;;;;18.52;56.27;100395.41;5049667;28;20041;-46
2022/11/08 06:06:07;;;;;;;4.35;1.55;;;;;;;18.56;56.30;100382.94;5045371;28;20085;-45
2022/11/08 06:08:34;;;;;;;2.83;1.50;;;;;;;18.58;56.20;100381.91;5049241;28;20102;-45
2022/11/08 06:11:08;;;;;;;4.63;1.63;;;;;;;18.58;56.21;100381.91;5050725;28;20044;-47
2022/11/08 06:13:34;;;;;;;3.30;1.27;;;;;;;18.62;55.96;100391.31;5046089;28;20053;-45
2022/11/08 06:16:01;;;;;;;3.20;1.65;;;;;;;18.68;56.05;100393.56;5047886;28;20040;-46
2022/11/08 06:18:28;;;;;;;4.40;2.00;;;;;;;18.67;55.95;100391.00;5040783;28;20051;-45
2022/11/08 06:20:53;;;;;;;20.98;7.75;;;;;;;18.65;55.82;100377.97;5049202;28;20033;-46
2022/11/08 06:23:21;;;;;;;16.17;8.30;;;;;;;18.65;55.95;100380.59;5046747;28;20040;-48
2022/11/08 06:25:46;;;;;;;24.63;9.88;;;;;;;18.66;55.95;100373.53;5045114;28;20041;-39
2022/11/08 06:28:13;;;;;;;33.55;11.98;;;;;;;18.71;55.81;100379.38;5049346;28;20273;-40
2022/11/08 06:30:38;;;;;;;35.78;13.90;;;;;;;18.76;55.88;100381.72;5045202;28;20045;-39
2022/11/08 06:33:04;;;;;;;23.05;10.77;;;;;;;18.82;55.82;100395.34;5045971;28;20095;-40
2022/11/08 06:35:29;;;;;;;42.22;16.63;;;;;;;18.90;55.84;100393.09;5049236;28;20044;-41
2022/11/08 06:37:54;;;;;;;38.47;16.45;;;;;;;18.96;55.76;100395.34;5051151;28;20125;-42
2022/11/08 06:40:20;;;;;;;39.42;16.48;;;;;;;19.00;55.87;100383.69;5046624;28;20083;-43
2022/11/08 06:42:45;;;;;;;38.90;17.10;;;;;;;19.05;55.95;100393.94;5050096;28;20449;-41
2022/11/08 06:45:10;;;;;;;41.88;19.50;;;;;;;19.07;56.05;100390.28;5049678;28;20448;-41
2022/11/08 06:47:36;;;;;;;47.65;18.83;;;;;;;19.10;55.91;100389.25;5055445;28;20028;-40
2022/11/08 06:50:01;;;;;;;41.03;18.90;;;;;;;19.10;56.04;100398.00;5053108;28;20040;-40
2022/11/08 06:52:26;;;;;;;38.90;17.70;;;;;;;19.24;55.75;100391.84;5060740;28;20040;-41
2022/11/08 06:54:52;;;;;;;36.10;16.25;;;;;;;19.29;55.56;100402.13;5057623;28;20120;-41
2022/11/08 06:57:17;;;;;;;37.55;16.33;;;;;;;19.32;55.53;100407.19;5051583;28;20024;-39
2022/11/08 06:59:42;;;;;;;35.10;15.63;;;;;;;19.35;55.43;100404.38;5053985;28;20467;-39
2022/11/08 07:02:10;;;;;;;46.90;16.75;;;;;;;19.29;55.63;100405.59;5055053;28;20383;-41
2022/11/08 07:04:35;;;;;;;47.10;18.10;;;;;;;19.37;55.68;100407.78;5054803;28;20068;-40
2022/11/08 07:07:00;;;;;;;51.95;17.13;;;;;;;19.44;55.85;100409.06;5055955;28;20040;-40
2022/11/08 07:09:26;;;;;;;39.63;17.67;;;;;;;19.47;55.78;100406.22;5057005;28;20123;-40
2022/11/08 07:11:51;;;;;;;53.83;17.92;;;;;;;19.49;55.61;100392.03;5052595;28;20056;-39
2022/11/08 07:14:17;;;;;;;46.08;17.17;;;;;;;19.44;56.19;100393.25;5052634;28;20067;-39
2022/11/08 07:16:42;;;;;;;56.00;18.35;;;;;;;19.54;56.25;100407.53;5052847;28;20047;-39
2022/11/08 07:19:07;;;;;;;42.65;17.67;;;;;;;19.51;56.51;100407.75;5049850;28;20048;-41
2022/11/08 07:21:33;;;;;;;49.88;17.50;;;;;;;19.50;56.62;100411.31;5053797;28;20669;-39
2022/11/08 07:23:58;;;;;;;47.08;17.75;;;;;;;19.54;56.31;100413.66;5053939;28;20115;-39
2022/11/08 07:26:23;;;;;;;43.83;16.13;;;;;;;19.53;56.36;100406.69;5052612;28;20045;-39
2022/11/08 07:28:49;;;;;;;45.97;18.40;;;;;;;19.52;56.28;100405.00;5050280;28;20494;-39
2022/11/08 07:31:14;;;;;;;47.45;16.77;;;;;;;19.52;56.32;100412.91;5049885;28;20040;-39
2022/11/08 07:33:39;;;;;;;40.65;17.10;;;;;;;19.41;56.78;100411.88;5052379;28;20049;-44
2022/11/08 07:36:06;;;;;;;39.08;17.13;;;;;;;19.41;56.97;100415.38;5056268;28;20137;-43
2022/11/08 07:38:32;;;;;;;42.15;17.77;;;;;;;19.41;57.02;100419.78;5054327;28;20119;-43
2022/11/08 07:40:58;;;;;;;45.47;16.52;;;;;;;19.52;56.90;100427.88;5049338;28;20047;-42
2022/11/08 07:43:26;;;;;;;43.13;17.33;;;;;;;19.36;57.00;100435.91;5048403;28;20041;-41
2022/11/08 07:45:57;;;;;;;41.60;16.35;;;;;;;19.40;57.30;100442.66;5052331;28;20040;-45
2022/11/08 07:48:23;;;;;;;37.97;16.38;;;;;;;19.45;57.48;100437.97;5056188;28;20402;-45
2022/11/08 07:50:49;;;;;;;43.45;15.93;;;;;;;19.37;57.64;100434.97;5054408;28;20040;-48
2022/11/08 07:53:14;;;;;;;40.30;16.92;;;;;;;19.34;57.50;100426.41;5050875;28;20072;-45
2022/11/08 07:55:40;;;;;;;45.45;17.23;;;;;;;19.41;57.42;100430.34;5050979;28;20037;-44
2022/11/08 07:58:06;;;;;;;38.95;15.88;;;;;;;19.40;57.51;100426.84;5051100;28;20412;-44
2022/11/08 08:00:37;;;;;;;36.13;15.65;;;;;;;19.26;57.70;100419.78;5048475;28;20044;-45
2022/11/08 08:03:04;;;;;;;64.68;19.90;;;;;;;19.19;58.29;100426.38;5051627;28;20028;-46
2022/11/08 08:05:33;;;;;;;51.40;18.05;;;;;;;19.12;58.88;100418.94;5050357;28;20040;-47
2022/11/08 08:08:00;;;;;;;44.83;17.23;;;;;;;19.12;58.65;100411.91;5054219;28;20148;-48
2022/11/08 08:10:27;;;;;;;45.03;18.45;;;;;;;19.11;58.45;100412.84;5050206;28;20124;-45
2022/11/08 08:12:53;;;;;;;40.50;16.58;;;;;;;19.06;58.42;100419.31;5050444;28;20045;-45
2022/11/08 08:15:18;;;;;;;49.35;17.65;;;;;;;19.07;58.43;100416.63;5051343;28;20036;-44
2022/11/08 08:17:44;;;;;;;45.80;18.48;;;;;;;19.05;58.67;100418.47;5052102;28;20616;-45
2022/11/08 08:20:10;;;;;;;48.65;18.55;;;;;;;19.10;58.39;100413.78;5047165;28;20467;-43
2022/11/08 08:22:35;;;;;;;48.45;18.02;;;;;;;19.06;58.55;100409.66;5051962;28;20039;-42
2022/11/08 08:25:00;;;;;;;49.95;18.02;;;;;;;19.07;58.70;100415.75;5052045;28;20045;-40
2022/11/08 08:27:26;;;;;;;39.22;16.95;;;;;;;19.08;58.33;100409.53;5049562;28;20124;-40
2022/11/08 08:29:51;;;;;;;42.92;16.90;;;;;;;19.08;58.33;100413.03;5052770;28;20032;-40
2022/11/08 08:32:17;;;;;;;41.13;16.70;;;;;;;19.05;58.24;100429.00;5053949;28;20677;-41
2022/11/08 08:34:42;;;;;;;48.53;17.83;;;;;;;19.08;58.17;100428.81;5049698;28;20040;-41
2022/11/08 08:37:07;;;;;;;43.28;16.90;;;;;;;19.07;58.35;100429.78;5052252;28;20174;-41
2022/11/08 08:39:33;;;;;;;41.47;16.50;;;;;;;19.10;58.40;100432.22;5049559;28;20040;-41
2022/11/08 08:41:59;;;;;;;42.05;17.65;;;;;;;19.06;58.54;100430.72;5053414;28;20042;-39
2022/11/08 08:44:24;;;;;;;43.28;18.60;;;;;;;19.10;58.13;100428.75;5047451;28;20123;-41
2022/11/08 08:46:49;;;;;;;44.42;18.02;;;;;;;19.07;58.15;100429.78;5045792;28;20042;-40
2022/11/08 08:49:15;;;;;;;37.40;14.73;;;;;;;19.08;58.01;100428.81;5051466;28;20571;-48
2022/11/08 08:51:40;;;;;;;39.17;16.08;;;;;;;19.11;58.34;100422.50;5050670;28;20037;-43
2022/11/08 08:54:06;;;;;;;44.03;17.58;;;;;;;19.20;58.51;100427.22;5049601;28;20115;-39
2022/11/08 08:56:31;;;;;;;38.28;15.20;;;;;;;19.18;57.71;100427.31;5044304;28;20063;-42
2022/11/08 08:58:57;;;;;;;37.53;15.57;;;;;;;19.10;58.27;100428.75;5047707;28;20176;-40
2022/11/08 09:01:22;;;;;;;33.70;15.05;;;;;;;19.09;58.27;100421.78;5034160;28;20063;-42
2022/11/08 09:03:47;;;;;;;37.10;15.75;;;;;;;19.09;58.29;100416.50;5048571;28;20413;-43
2022/11/08 09:06:13;;;;;;;30.33;14.63;;;;;;;19.16;58.15;100415.19;5052002;28;20088;-42
2022/11/08 09:08:38;;;;;;;37.28;13.73;;;;;;;19.49;57.86;100407.00;5052544;28;20487;-38
2022/11/08 09:11:04;;;;;;;35.38;14.50;;;;;;;19.69;57.88;100409.22;5048787;28;20047;-39
2022/11/08 09:13:30;;;;;;;36.30;14.68;;;;;;;19.56;57.56;100408.28;5052551;28;20053;-42
2022/11/08 09:15:55;;;;;;;39.65;15.50;;;;;;;19.50;57.54;100406.03;5056002;28;20047;-42
2022/11/08 09:18:21;;;;;;;33.15;14.32;;;;;;;19.55;57.99;100417.97;5047924;28;20040;-45
2022/11/08 09:20:46;;;;;;;37.78;14.35;;;;;;;19.72;57.69;100420.41;5047449;28;20035;-43
2022/11/08 09:23:13;;;;;;;35.42;14.32;;;;;;;19.59;57.12;100418.63;5053314;28;20102;-44
2022/11/08 09:25:41;;;;;;;32.03;13.27;;;;;;;19.53;56.66;100429.56;5049668;28;20043;-41
2022/11/08 09:28:08;;;;;;;33.10;15.23;;;;;;;19.68;56.70;100428.59;5047718;28;20155;-40
2022/11/08 09:30:33;;;;;;;34.40;13.75;;;;;;;19.44;57.53;100423.09;5052827;28;20051;-41
2022/11/08 09:32:59;;;;;;;30.50;13.70;;;;;;;19.38;56.93;100428.75;5050632;28;20034;-40
2022/11/08 09:35:24;;;;;;;29.80;13.55;;;;;;;19.31;57.26;100426.59;5048612;28;20041;-41
2022/11/08 09:37:52;;;;;;;28.85;12.77;;;;;;;19.44;57.00;100436.25;5050674;28;20045;-42
2022/11/08 09:40:22;;;;;;;31.30;14.13;;;;;;;19.29;57.04;100434.56;5048716;28;20041;-45
2022/11/08 09:42:50;;;;;;;33.05;12.93;;;;;;;19.36;57.48;100449.06;5047816;28;20151;-42
2022/11/08 09:45:35;;;;;;;30.75;14.07;;;;;;;19.25;58.14;100449.69;5048198;28;20032;-41
2022/11/08 09:48:04;;;;;;;32.88;12.45;;;;;;;19.33;57.88;100444.00;5043963;28;20143;-42
2022/11/08 09:50:43;;;;;;;33.30;13.45;;;;;;;19.32;57.59;100434.38;5048664;28;20103;-42
2022/11/08 09:53:34;;;;;;;30.85;13.20;;;;;;;19.30;57.41;100427.53;5048835;28;20075;-42
2022/11/08 09:56:14;;;;;;;28.60;13.25;;;;;;;19.32;57.60;100418.59;5033351;28;20048;-42
2022/11/08 09:59:05;;;;;;;28.65;12.77;;;;;;;19.34;57.95;100413.25;5052513;28;20036;-42
2022/11/08 10:01:35;;;;;;;29.77;13.20;;;;;;;19.26;57.45;100414.53;5048733;28;20040;-41
2022/11/08 10:04:21;;;;;;;29.17;13.25;;;;;;;19.21;57.75;100407.84;5046129;28;20037;-41
2022/11/08 10:07:02;;;;;;;31.67;13.45;;;;;;;19.27;57.56;100407.47;5050745;28;20704;-41
2022/11/08 10:09:59;;;;;;;28.60;13.00;;;;;;;19.39;57.62;100408.50;5045731;28;20037;-43
2022/11/08 10:12:37;;;;;;;29.20;11.90;;;;;;;19.40;57.01;100412.84;5047201;28;20537;-39
2022/11/08 10:15:14;;;;;;;25.42;12.05;;;;;;;19.22;57.75;100406.91;5053123;28;20406;-40
2022/11/08 10:17:43;;;;;;;26.95;11.93;;;;;;;19.21;57.74;100397.31;5043653;28;20079;-41
2022/11/08 10:20:21;;;;;;;29.98;12.80;;;;;;;19.17;57.57;100391.38;5043804;28;20753;-39
2022/11/08 10:23:05;;;;;;;27.10;12.02;;;;;;;19.18;57.52;100397.50;5045436;28;20045;-40
2022/11/08 10:25:44;;;;;;;27.17;12.55;;;;;;;19.15;57.72;100395.06;5048055;28;20044;-40
2022/11/08 10:28:17;;;;;;;27.75;13.35;;;;;;;19.18;57.43;100395.72;5053359;28;20040;-40
2022/11/08 10:30:48;;;;;;;24.17;11.57;;;;;;;19.15;57.40;100392.44;5059798;28;20041;-40
2022/11/08 10:33:19;;;;;;;24.33;12.20;;;;;;;19.26;57.59;100389.97;5047211;28;20040;-42
2022/11/08 10:35:56;;;;;;;26.98;12.38;;;;;;;19.27;57.30;100386.41;5051576;28;20078;-41
2022/11/08 10:38:29;;;;;;;25.10;11.30;;;;;;;19.31;57.20;100387.09;5051788;28;20040;-42
2022/11/08 10:41:22;;;;;;;26.42;11.40;;;;;;;19.34;56.92;100379.00;5042307;28;20091;-44
2022/11/08 10:43:51;;;;;;;25.23;10.00;;;;;;;19.30;57.41;100380.13;5048054;28;20049;-43
2022/11/08 10:46:37;;;;;;;25.27;11.30;;;;;;;19.39;56.96;100369.84;5044977;28;20033;-42
2022/11/08 10:49:20;;;;;;;20.48;10.20;;;;;;;19.50;56.90;100364.75;5050589;28;20146;-39
2022/11/08 10:51:50;;;;;;;28.02;10.82;;;;;;;19.42;56.70;100361.75;5048608;28;20045;-40
2022/11/08 10:54:40;;;;;;;20.77;10.95;;;;;;;19.51;56.84;100366.44;5045511;28;20040;-47
2022/11/08 10:57:05;;;;;;;25.10;10.75;;;;;;;19.49;56.35;100357.78;5046071;28;20031;-52
2022/11/08 10:59:31;;;;;;;23.77;10.77;;;;;;;19.37;56.99;100352.47;5048327;28;20055;-49
2022/11/08 11:01:57;;;;;;;20.13;10.15;;;;;;;19.34;57.22;100347.41;5050336;28;20083;-49
2022/11/08 11:04:29;;;;;;;21.58;10.50;;;;;;;19.52;56.47;100354.13;5046427;28;20052;-51
2022/11/08 11:07:20;;;;;;;20.58;10.10;;;;;;;19.51;56.37;100334.81;5047234;28;20052;-49
2022/11/08 11:09:45;;;;;;;24.90;11.50;;;;;;;19.53;57.02;100332.06;5048991;28;20064;-52
2022/11/08 11:12:12;;;;;;;21.75;10.23;;;;;;;19.49;56.31;100325.34;5047945;28;20033;-51
2022/11/08 11:14:39;;;;;;;19.42;10.60;;;;;;;19.44;56.80;100328.25;5050565;28;20024;-54
2022/11/08 11:17:15;;;;;;;21.73;10.27;;;;;;;19.39;56.63;100324.22;5045080;28;20403;-51
2022/11/08 11:19:50;;;;;;;21.92;10.43;;;;;;;19.73;55.98;100324.56;5042818;28;20037;-52
2022/11/08 11:22:31;;;;;;;21.35;9.70;;;;;;;19.73;56.29;100329.84;5045520;28;20131;-48
2022/11/08 11:25:05;;;;;;;23.77;9.50;;;;;;;19.89;56.16;100320.91;5043504;28;20049;-47
2022/11/08 11:27:35;;;;;;;17.23;9.38;;;;;;;20.01;55.66;100306.91;5049801;28;20045;-46
2022/11/08 11:30:19;;;;;;;24.30;10.43;;;;;;;20.04;55.87;100306.72;5048703;28;20550;-46
2022/11/08 11:33:16;;;;;;;21.23;9.15;;;;;;;20.05;55.63;100305.78;5049613;28;20053;-49
2022/11/08 11:35:48;;;;;;;18.98;9.77;;;;;;;19.76;54.82;100312.97;5052012;28;20503;-50
2022/11/08 11:38:45;;;;;;;22.88;9.63;;;;;;;19.39;55.71;100308.44;5051929;28;20037;-49
2022/11/08 11:41:23;;;;;;;21.55;9.93;;;;;;;19.33;55.96;100314.09;5025050;28;20036;-51